Fryburg, North Dakota
Current Conditions -  °F | °C
As of 8:56 AM on Thursday 23 Oct 2014 (Local Time) from KDIK Reporting Station
Clear Clear  
Wind Chill: 44°   Ceiling: Unl
Heat Index: 48°   Visibility: 10mi
Dew Point: 31°   Wind: 9mph
Humidity: 52%   Direction: 240°WSW
Pressure: 29.88"   Gusts: NA
Location:  46.8731°N, 103.138°W
Report Text: KDIK 231456Z AUTO 24008KT 10SM CLR 09/M01 A2988 RMK AO2 SLP126 T00891006 53003
Loading
Personal Weather Stations






























Interactive Weather Map
Tropical Storm Tracking
New forecast layout! Learn more

10-Day Weather Forecast

Advertisements
Track Severe Weather on mobile